Time;durP1;ratioP1;P1;durP2;ratioP2;P2;SDS_P1;SDS_P2;PMS_P1;PMS_P2;Temp;Humidity;BMP_temperature;BMP_pressure;BME280_temperature;BME280_humidity;BME280_pressure;Samples;Min_cycle;Max_cycle;Signal;HPM_P1;HPM_P2
2023/01/19 00:01:37;;;;;;;16.55;9.48;;;;;;;;;;10239189;28;20043;-45
2023/01/19 00:06:38;;;;;;;14.80;8.60;;;;;;;;;;10237884;29;20480;-46
2023/01/19 00:11:38;;;;;;;13.48;8.52;;;;;;;;;;10226867;29;20525;-46
2023/01/19 00:16:39;;;;;;;17.80;9.73;;;;;;;;;;10238752;29;20459;-45
2023/01/19 00:21:39;;;;;;;15.48;9.65;;;;;;;;;;10227207;29;20098;-45
2023/01/19 00:26:41;;;;;;;13.05;7.97;;;;;;;;;;10219969;29;20068;-45
2023/01/19 00:31:42;;;;;;;13.27;8.40;;;;;;;;;;10213001;29;20073;-45
2023/01/19 00:36:43;;;;;;;14.55;9.18;;;;;;;;;;10296350;28;20049;-45
2023/01/19 00:47:04;;;;;;;13.82;7.80;;;;;;;;;;10405415;28;20014;-46
2023/01/19 00:52:05;;;;;;;14.98;9.02;;;;;;;;;;10389663;28;20113;-46
2023/01/19 00:57:06;;;;;;;12.45;7.97;;;;;;;;;;10393324;28;20383;-46
2023/01/19 01:02:06;;;;;;;15.10;8.85;;;;;;;;;;10391661;28;20415;-46
2023/01/19 01:07:07;;;;;;;14.38;8.75;;;;;;;;;;10367030;28;20388;-45
2023/01/19 01:12:07;;;;;;;13.43;7.88;;;;;;;;;;10392029;28;20029;-45
2023/01/19 01:17:10;;;;;;;12.75;8.38;;;;;;;;;;10379025;28;20034;-45
2023/01/19 01:22:10;;;;;;;11.60;7.40;;;;;;;;;;10392798;28;20117;-45
2023/01/19 01:27:12;;;;;;;13.35;8.00;;;;;;;;;;10389434;28;20477;-46
2023/01/19 01:32:14;;;;;;;8.80;7.22;;;;;;;;;;10366341;28;20469;-45
2023/01/19 01:37:14;;;;;;;15.05;7.82;;;;;;;;;;10366858;28;20046;-46
2023/01/19 01:42:18;;;;;;;13.75;7.85;;;;;;;;;;10365234;28;20466;-46
2023/01/19 01:47:41;;;;;;;20.10;6.68;;;;;;;;;;10364675;28;20072;-45
2023/01/19 01:52:51;;;;;;;11.45;7.55;;;;;;;;;;10337670;28;20096;-46
2023/01/19 01:58:00;;;;;;;10.98;6.95;;;;;;;;;;10354545;28;20109;-45
2023/01/19 02:03:00;;;;;;;12.60;8.18;;;;;;;;;;10365861;28;20527;-46
2023/01/19 02:13:42;;;;;;;14.65;7.82;;;;;;;;;;10358507;28;20465;-45
2023/01/19 02:18:44;;;;;;;11.30;6.85;;;;;;;;;;10365019;28;20029;-45
2023/01/19 02:23:47;;;;;;;12.32;7.68;;;;;;;;;;10367642;28;20025;-45
2023/01/19 02:28:56;;;;;;;9.32;6.50;;;;;;;;;;10373348;28;20029;-46
2023/01/19 02:33:58;;;;;;;10.80;6.97;;;;;;;;;;10350125;28;20034;-46
2023/01/19 02:39:00;;;;;;;12.95;6.10;;;;;;;;;;10353933;28;20077;-46
2023/01/19 02:44:03;;;;;;;10.73;7.25;;;;;;;;;;10352922;28;20125;-46
2023/01/19 02:49:03;;;;;;;9.82;6.65;;;;;;;;;;10355377;28;20026;-47
2023/01/19 02:54:19;;;;;;;10.20;6.43;;;;;;;;;;10371861;28;20041;-46
2023/01/19 02:59:44;;;;;;;8.48;6.18;;;;;;;;;;10355571;28;20026;-46
2023/01/19 03:05:03;;;;;;;8.80;5.95;;;;;;;;;;10369179;28;20459;-47
2023/01/19 03:10:19;;;;;;;;;;;;;;;;;;10372171;28;20042;-46
2023/01/19 03:15:35;;;;;;;9.68;6.45;;;;;;;;;;10354761;28;19921;-45
2023/01/19 03:20:39;;;;;;;11.52;6.32;;;;;;;;;;10355164;28;20026;-46
2023/01/19 03:25:43;;;;;;;7.53;6.05;;;;;;;;;;10370126;28;20073;-45
2023/01/19 03:30:52;;;;;;;10.25;6.38;;;;;;;;;;10370794;28;20034;-46
2023/01/19 03:36:02;;;;;;;9.77;6.07;;;;;;;;;;10370066;28;20472;-46
2023/01/19 03:41:09;;;;;;;8.63;5.80;;;;;;;;;;10370104;28;20041;-47
2023/01/19 03:46:11;;;;;;;7.13;5.75;;;;;;;;;;10370219;28;20030;-46
2023/01/19 03:51:13;;;;;;;9.30;6.47;;;;;;;;;;10377668;28;20029;-46
2023/01/19 03:56:24;;;;;;;8.85;6.03;;;;;;;;;;10350006;28;20473;-45
2023/01/19 04:01:25;;;;;;;9.27;5.95;;;;;;;;;;10359066;28;20049;-45
2023/01/19 04:06:25;;;;;;;8.73;5.57;;;;;;;;;;10406229;28;20120;-47
2023/01/19 04:11:26;;;;;;;8.63;6.07;;;;;;;;;;10380334;28;20113;-46
2023/01/19 04:16:27;;;;;;;7.20;5.60;;;;;;;;;;10380148;28;20034;-46
2023/01/19 04:21:28;;;;;;;6.80;5.53;;;;;;;;;;10406733;28;20155;-48
2023/01/19 04:26:28;;;;;;;6.97;5.47;;;;;;;;;;10393638;28;20189;-45
2023/01/19 04:31:30;;;;;;;6.45;5.55;;;;;;;;;;10380404;28;20107;-45
2023/01/19 04:36:30;;;;;;;6.43;5.45;;;;;;;;;;10391239;28;20049;-46
2023/01/19 04:41:31;;;;;;;8.30;5.07;;;;;;;;;;10388843;28;20052;-45
2023/01/19 04:46:32;;;;;;;7.20;5.55;;;;;;;;;;10375239;28;20026;-46
2023/01/19 04:51:33;;;;;;;6.53;5.13;;;;;;;;;;10391797;28;20030;-49
2023/01/19 04:56:34;;;;;;;8.98;5.75;;;;;;;;;;10366784;28;20402;-46
2023/01/19 05:01:35;;;;;;;7.45;5.43;;;;;;;;;;10366654;28;20034;-45
2023/01/19 05:06:36;;;;;;;7.47;5.20;;;;;;;;;;10366259;28;20034;-46
2023/01/19 05:11:36;;;;;;;5.35;4.75;;;;;;;;;;10355688;28;20056;-45
2023/01/19 05:16:37;;;;;;;7.53;5.35;;;;;;;;;;10361005;28;20401;-48
2023/01/19 05:21:38;;;;;;;6.13;4.95;;;;;;;;;;10365885;28;20025;-46
2023/01/19 05:26:38;;;;;;;7.75;4.97;;;;;;;;;;10378611;28;20029;-46
2023/01/19 05:31:39;;;;;;;6.13;4.95;;;;;;;;;;10383644;28;20029;-45
2023/01/19 05:36:40;;;;;;;6.53;4.75;;;;;;;;;;10385855;28;20104;-46
2023/01/19 05:41:41;;;;;;;5.97;4.70;;;;;;;;;;10384802;28;20073;-46
2023/01/19 05:46:41;;;;;;;7.03;4.63;;;;;;;;;;10384751;28;20389;-45
2023/01/19 05:51:44;;;;;;;5.97;4.35;;;;;;;;;;10375429;28;20051;-45
2023/01/19 05:56:44;;;;;;;7.78;4.43;;;;;;;;;;10365786;28;20397;-45
2023/01/19 06:01:45;;;;;;;8.00;4.80;;;;;;;;;;10397014;28;20044;-46
2023/01/19 06:06:49;;;;;;;5.13;4.32;;;;;;;;;;10384796;28;20041;-47
2023/01/19 06:11:52;;;;;;;5.93;4.93;;;;;;;;;;10381380;28;20101;-47
2023/01/19 06:16:53;;;;;;;5.68;4.70;;;;;;;;;;10410089;28;20044;-45
2023/01/19 06:21:54;;;;;;;5.80;4.88;;;;;;;;;;10395040;28;20460;-45
2023/01/19 06:26:54;;;;;;;5.75;4.00;;;;;;;;;;10390968;28;20025;-49
2023/01/19 06:31:55;;;;;;;11.88;4.50;;;;;;;;;;10393907;28;20025;-49
2023/01/19 06:36:56;;;;;;;7.63;4.88;;;;;;;;;;10400903;28;20079;-50
2023/01/19 06:41:56;;;;;;;9.27;5.00;;;;;;;;;;10375914;28;20029;-50
2023/01/19 06:46:57;;;;;;;8.07;4.90;;;;;;;;;;10368061;28;20572;-49
2023/01/19 06:51:57;;;;;;;7.13;5.47;;;;;;;;;;10371300;28;20073;-50
2023/01/19 06:56:58;;;;;;;8.63;4.90;;;;;;;;;;10370237;28;20508;-52
2023/01/19 07:01:58;;;;;;;23.20;4.90;;;;;;;;;;10381769;28;20033;-58
2023/01/19 07:07:00;;;;;;;16.50;5.50;;;;;;;;;;10374823;28;20030;-48
2023/01/19 07:12:00;;;;;;;13.32;5.30;;;;;;;;;;10404923;28;20026;-49
2023/01/19 07:17:01;;;;;;;19.30;5.20;;;;;;;;;;10399493;28;20026;-48
2023/01/19 07:22:02;;;;;;;9.93;4.57;;;;;;;;;;10380608;28;20393;-48
2023/01/19 07:27:04;;;;;;;10.02;3.92;;;;;;;;;;10380949;28;20026;-51
2023/01/19 07:32:05;;;;;;;12.95;4.55;;;;;;;;;;10380535;28;20033;-50
2023/01/19 07:37:05;;;;;;;10.52;4.50;;;;;;;;;;10328519;28;1169103;-47
2023/01/19 07:42:06;;;;;;;11.85;4.63;;;;;;;;;;10369669;28;20037;-47
2023/01/19 07:47:09;;;;;;;14.70;4.80;;;;;;;;;;10369400;28;20014;-48
2023/01/19 07:52:10;;;;;;;12.20;4.47;;;;;;;;;;10369616;28;20171;-51
2023/01/19 07:57:11;;;;;;;7.18;4.00;;;;;;;;;;10369407;28;20329;-48
2023/01/19 08:02:11;;;;;;;20.52;6.05;;;;;;;;;;10389264;28;20029;-46
2023/01/19 08:07:12;;;;;;;6.07;4.03;;;;;;;;;;10404956;28;20029;-50
2023/01/19 08:12:12;;;;;;;11.00;4.05;;;;;;;;;;10392506;28;20048;-46
2023/01/19 08:17:13;;;;;;;4.57;3.65;;;;;;;;;;10396991;28;20018;-46
2023/01/19 08:22:14;;;;;;;11.07;3.80;;;;;;;;;;10373801;28;20034;-46
2023/01/19 08:27:14;;;;;;;5.45;3.72;;;;;;;;;;10376326;28;20036;-46
2023/01/19 08:32:15;;;;;;;9.00;4.28;;;;;;;;;;10377863;28;20317;-48
2023/01/19 08:37:16;;;;;;;10.75;4.03;;;;;;;;;;10396375;28;20114;-50
2023/01/19 08:42:16;;;;;;;8.02;3.50;;;;;;;;;;10383971;28;20036;-49
2023/01/19 08:47:17;;;;;;;8.95;3.58;;;;;;;;;;10365134;28;20503;-49
2023/01/19 08:52:17;;;;;;;10.20;3.90;;;;;;;;;;10375171;28;20029;-47
2023/01/19 08:57:18;;;;;;;9.05;3.83;;;;;;;;;;10394091;28;20022;-55
2023/01/19 09:02:19;;;;;;;10.65;3.70;;;;;;;;;;10373126;28;20033;-50
2023/01/19 09:07:19;;;;;;;6.03;3.42;;;;;;;;;;10385903;28;20030;-48
2023/01/19 09:12:20;;;;;;;6.00;3.67;;;;;;;;;;10383779;28;20029;-50
2023/01/19 09:17:20;;;;;;;6.28;3.20;;;;;;;;;;10391527;28;20025;-55
2023/01/19 09:22:21;;;;;;;5.32;2.97;;;;;;;;;;10374006;28;20037;-46
2023/01/19 09:27:21;;;;;;;5.50;3.53;;;;;;;;;;10402757;28;20025;-50
2023/01/19 09:32:22;;;;;;;6.68;3.20;;;;;;;;;;10391435;28;20057;-46
2023/01/19 09:37:23;;;;;;;5.90;3.33;;;;;;;;;;10382124;28;20048;-46
2023/01/19 09:42:43;;;;;;;8.60;3.20;;;;;;;;;;10385946;28;20473;-55
2023/01/19 09:47:47;;;;;;;6.63;3.20;;;;;;;;;;10374816;28;20090;-46
2023/01/19 09:52:56;;;;;;;6.88;3.00;;;;;;;;;;10378083;28;20036;-51
2023/01/19 09:57:57;;;;;;;10.23;3.45;;;;;;;;;;10390357;28;20026;-53
2023/01/19 10:03:15;;;;;;;5.07;2.70;;;;;;;;;;10373293;28;20036;-54
2023/01/19 10:08:22;;;;;;;13.30;4.18;;;;;;;;;;10388713;28;20038;-47
2023/01/19 10:13:53;;;;;;;5.70;3.40;;;;;;;;;;10372434;28;20057;-55
2023/01/19 10:19:00;;;;;;;4.20;2.78;;;;;;;;;;10393819;28;20026;-51
2023/01/19 10:24:10;;;;;;;4.28;3.13;;;;;;;;;;10379196;28;20026;-49
2023/01/19 10:29:35;;;;;;;5.78;3.20;;;;;;;;;;10350737;28;20124;-50
2023/01/19 10:34:36;;;;;;;5.22;3.22;;;;;;;;;;10404790;23;20720;-47
2023/01/19 10:39:36;;;;;;;6.38;3.42;;;;;;;;;;10436266;28;20064;-48
2023/01/19 10:44:37;;;;;;;7.15;2.85;;;;;;;;;;10411802;28;20029;-59
2023/01/19 10:49:41;;;;;;;6.30;3.60;;;;;;;;;;10405835;28;20461;-55
2023/01/19 10:54:43;;;;;;;6.38;3.00;;;;;;;;;;10407903;28;20557;-55
2023/01/19 10:59:43;;;;;;;6.25;2.83;;;;;;;;;;10385169;28;20033;-53
2023/01/19 11:04:45;;;;;;;11.35;3.20;;;;;;;;;;10408513;28;20033;-53
2023/01/19 11:09:47;;;;;;;5.60;2.85;;;;;;;;;;10407196;28;20022;-57
2023/01/19 11:14:50;;;;;;;3.72;3.08;;;;;;;;;;10385148;28;20469;-60
2023/01/19 11:20:01;;;;;;;5.90;3.00;;;;;;;;;;10387640;28;20021;-58
2023/01/19 11:25:04;;;;;;;5.25;2.80;;;;;;;;;;10406696;28;20025;-58
2023/01/19 11:30:14;;;;;;;7.50;3.25;;;;;;;;;;10390128;28;20394;-60
2023/01/19 11:35:38;;;;;;;4.65;2.67;;;;;;;;;;10404448;28;20544;-57
2023/01/19 11:40:51;;;;;;;7.80;2.75;;;;;;;;;;10403171;28;20057;-60
2023/01/19 11:45:55;;;;;;;4.75;2.60;;;;;;;;;;10388084;28;20037;-59
2023/01/19 11:50:58;;;;;;;6.60;3.08;;;;;;;;;;10385848;28;20025;-60
2023/01/19 11:56:10;;;;;;;4.25;2.60;;;;;;;;;;10388441;28;20087;-58
2023/01/19 12:01:35;;;;;;;4.38;2.88;;;;;;;;;;10385233;28;20017;-59
2023/01/19 12:06:41;;;;;;;5.70;2.70;;;;;;;;;;10385114;28;20127;-56
2023/01/19 12:12:00;;;;;;;2.35;2.15;;;;;;;;;;10387079;28;20460;-59
2023/01/19 12:17:04;;;;;;;;;;;;;;;;;;10406367;28;20025;-60
2023/01/19 12:22:05;;;;;;;4.22;2.30;;;;;;;;;;10388505;28;19920;-60
2023/01/19 12:27:32;;;;;;;3.47;2.40;;;;;;;;;;10400507;28;20189;-51
2023/01/19 12:32:35;;;;;;;4.45;2.70;;;;;;;;;;10384154;28;20026;-55
2023/01/19 12:37:40;;;;;;;4.95;2.75;;;;;;;;;;10404837;28;20469;-49
2023/01/19 12:43:01;;;;;;;5.45;2.60;;;;;;;;;;10385966;28;20045;-46
2023/01/19 12:48:03;;;;;;;3.25;2.25;;;;;;;;;;10403182;28;20033;-53
2023/01/19 12:53:17;;;;;;;4.32;2.40;;;;;;;;;;10405753;28;20051;-50
2023/01/19 12:58:23;;;;;;;4.18;2.67;;;;;;;;;;10376290;28;20034;-50
2023/01/19 13:03:26;;;;;;;5.13;2.58;;;;;;;;;;10382374;28;20421;-52
2023/01/19 13:08:48;;;;;;;4.10;2.13;;;;;;;;;;10386810;28;20033;-53
2023/01/19 13:13:49;;;;;;;3.65;2.30;;;;;;;;;;10370896;28;20120;-57
2023/01/19 13:18:57;;;;;;;5.43;2.38;;;;;;;;;;10389260;28;20017;-57
2023/01/19 13:24:01;;;;;;;4.45;2.10;;;;;;;;;;10404703;28;20033;-57
2023/01/19 13:29:34;;;;;;;4.03;2.15;;;;;;;;;;10397337;28;20045;-56
2023/01/19 13:34:43;;;;;;;5.47;2.10;;;;;;;;;;10398251;28;20461;-60
2023/01/19 13:39:45;;;;;;;;;;;;;;;;;;10405166;28;20041;-53
2023/01/19 13:44:51;;;;;;;3.95;2.10;;;;;;;;;;10396138;28;20050;-57
2023/01/19 13:49:56;;;;;;;2.85;2.20;;;;;;;;;;10407007;28;20025;-56
2023/01/19 13:55:02;;;;;;;2.67;1.98;;;;;;;;;;10406995;28;20106;-56
2023/01/19 14:00:05;;;;;;;7.80;2.10;;;;;;;;;;10403773;28;20032;-59
2023/01/19 14:05:32;;;;;;;5.95;2.45;;;;;;;;;;10404200;28;20033;-59
2023/01/19 14:10:37;;;;;;;1.88;1.50;;;;;;;;;;10402566;28;20017;-58
2023/01/19 14:15:39;;;;;;;4.20;1.98;;;;;;;;;;10404007;28;20038;-57
2023/01/19 14:20:41;;;;;;;2.35;1.80;;;;;;;;;;10409305;28;20025;-59
2023/01/19 14:25:43;;;;;;;4.03;1.90;;;;;;;;;;10413620;28;20030;-60
2023/01/19 14:31:00;;;;;;;2.50;2.03;;;;;;;;;;10412261;28;20546;-43
2023/01/19 14:36:12;;;;;;;5.15;2.10;;;;;;;;;;10409822;28;20038;-49
2023/01/19 14:41:32;;;;;;;3.33;1.85;;;;;;;;;;10413226;28;20060;-44
2023/01/19 14:46:33;;;;;;;3.35;2.05;;;;;;;;;;10395329;28;20040;-44
2023/01/19 14:51:34;;;;;;;4.03;2.08;;;;;;;;;;10394415;28;20048;-44
2023/01/19 14:56:35;;;;;;;4.47;2.00;;;;;;;;;;10412257;28;20052;-44
2023/01/19 15:01:36;;;;;;;4.57;1.85;;;;;;;;;;10409817;28;20036;-43
2023/01/19 15:06:44;;;;;;;10.07;2.28;;;;;;;;;;10410664;28;20105;-44
2023/01/19 15:11:47;;;;;;;10.70;2.40;;;;;;;;;;10410592;28;20480;-48
2023/01/19 15:16:48;;;;;;;17.63;2.35;;;;;;;;;;10392446;28;20049;-46
2023/01/19 15:21:48;;;;;;;9.57;2.45;;;;;;;;;;10395099;28;20041;-47
2023/01/19 15:26:49;;;;;;;21.27;2.40;;;;;;;;;;10410788;28;20124;-46
2023/01/19 15:31:50;;;;;;;7.60;2.15;;;;;;;;;;10411256;28;20024;-46
2023/01/19 15:36:51;;;;;;;7.05;1.95;;;;;;;;;;10393630;28;20049;-49
2023/01/19 15:41:51;;;;;;;4.78;2.00;;;;;;;;;;10411238;28;20419;-46
2023/01/19 15:46:52;;;;;;;2.20;1.73;;;;;;;;;;10411076;28;20385;-46
2023/01/19 15:51:53;;;;;;;7.90;1.80;;;;;;;;;;10410622;28;20046;-46
2023/01/19 15:56:53;;;;;;;4.80;2.05;;;;;;;;;;10410809;28;20087;-47
2023/01/19 16:01:54;;;;;;;5.90;1.50;;;;;;;;;;10403826;28;20036;-46
2023/01/19 16:06:54;;;;;;;3.65;1.50;;;;;;;;;;10402248;28;20021;-46
2023/01/19 16:11:56;;;;;;;6.53;2.30;;;;;;;;;;10405134;28;20026;-47
2023/01/19 16:16:58;;;;;;;2.28;1.70;;;;;;;;;;10405020;28;20054;-46
2023/01/19 16:21:59;;;;;;;7.55;2.10;;;;;;;;;;10408573;28;20029;-45
2023/01/19 16:26:59;;;;;;;2.28;1.73;;;;;;;;;;10383345;28;20468;-46
2023/01/19 16:32:00;;;;;;;6.40;1.70;;;;;;;;;;10401627;28;20137;-51
2023/01/19 16:37:01;;;;;;;6.97;2.10;;;;;;;;;;10408657;28;20075;-47
2023/01/19 16:42:01;;;;;;;2.92;1.63;;;;;;;;;;10407390;28;20029;-47
2023/01/19 16:47:03;;;;;;;4.75;1.77;;;;;;;;;;10407265;28;20132;-48
2023/01/19 16:52:03;;;;;;;7.65;2.17;;;;;;;;;;10389743;28;20112;-46
2023/01/19 16:57:04;;;;;;;4.60;1.67;;;;;;;;;;10407967;28;20143;-46
2023/01/19 17:02:06;;;;;;;2.80;1.80;;;;;;;;;;10407757;28;20484;-45
2023/01/19 17:07:06;;;;;;;3.15;1.70;;;;;;;;;;10405115;28;20022;-46
2023/01/19 17:12:08;;;;;;;5.68;2.75;;;;;;;;;;10398866;28;20021;-46
2023/01/19 17:17:08;;;;;;;17.85;4.75;;;;;;;;;;10405939;28;20112;-49
2023/01/19 17:22:10;;;;;;;18.42;4.80;;;;;;;;;;10405522;28;20102;-46
2023/01/19 17:27:11;;;;;;;10.70;4.30;;;;;;;;;;10405842;28;20029;-46
2023/01/19 17:32:11;;;;;;;8.93;3.50;;;;;;;;;;10405817;28;20033;-47
2023/01/19 17:37:12;;;;;;;13.65;3.63;;;;;;;;;;10404687;28;20413;-46
2023/01/19 17:42:12;;;;;;;8.13;3.70;;;;;;;;;;10402111;28;20091;-46
2023/01/19 17:47:13;;;;;;;10.38;3.63;;;;;;;;;;10402329;28;20416;-46
2023/01/19 17:52:14;;;;;;;14.77;3.58;;;;;;;;;;10405287;28;20029;-49
2023/01/19 17:57:15;;;;;;;8.73;3.58;;;;;;;;;;10412089;28;20044;-52
2023/01/19 18:02:15;;;;;;;7.70;3.58;;;;;;;;;;10413658;28;20030;-46
2023/01/19 18:07:16;;;;;;;7.47;3.20;;;;;;;;;;10411278;28;20017;-46
2023/01/19 18:12:18;;;;;;;10.68;3.47;;;;;;;;;;10415168;28;20017;-47
2023/01/19 18:17:19;;;;;;;9.93;3.53;;;;;;;;;;10410388;28;20025;-47
2023/01/19 18:22:19;;;;;;;10.98;3.35;;;;;;;;;;10412512;28;20017;-47
2023/01/19 18:27:20;;;;;;;7.90;3.13;;;;;;;;;;10409026;28;20380;-47
2023/01/19 18:32:21;;;;;;;10.32;3.47;;;;;;;;;;10405449;28;20021;-55
2023/01/19 18:37:22;;;;;;;5.80;2.90;;;;;;;;;;10396475;28;20044;-51
2023/01/19 18:42:22;;;;;;;13.02;3.10;;;;;;;;;;10399160;28;20041;-51
2023/01/19 18:47:23;;;;;;;7.70;3.15;;;;;;;;;;10398508;28;20034;-47
2023/01/19 18:52:23;;;;;;;7.35;2.90;;;;;;;;;;10396813;28;20086;-57
2023/01/19 18:57:24;;;;;;;9.57;3.28;;;;;;;;;;10389858;28;20476;-50
2023/01/19 19:02:25;;;;;;;7.18;2.40;;;;;;;;;;10396243;28;20649;-54
2023/01/19 19:07:25;;;;;;;5.10;2.60;;;;;;;;;;10390894;28;20048;-59
2023/01/19 19:12:26;;;;;;;5.95;3.05;;;;;;;;;;10386827;28;20084;-48
2023/01/19 19:17:27;;;;;;;7.45;3.05;;;;;;;;;;10395903;28;20068;-46
2023/01/19 19:22:27;;;;;;;26.05;4.95;;;;;;;;;;10406257;28;20030;-47
2023/01/19 19:27:28;;;;;;;31.38;6.30;;;;;;;;;;10395120;28;20022;-47
2023/01/19 19:32:28;;;;;;;15.90;4.10;;;;;;;;;;10404904;28;20037;-47
2023/01/19 19:37:29;;;;;;;10.20;3.35;;;;;;;;;;10398510;28;20048;-49
2023/01/19 19:42:30;;;;;;;15.52;3.20;;;;;;;;;;10394319;28;20037;-47
2023/01/19 19:47:30;;;;;;;11.60;4.00;;;;;;;;;;10385833;28;20057;-48
2023/01/19 19:52:36;;;;;;;15.50;3.95;;;;;;;;;;10406479;28;20032;-46
2023/01/19 19:57:36;;;;;;;25.00;4.40;;;;;;;;;;10407314;28;20056;-47
2023/01/19 20:02:37;;;;;;;17.98;3.75;;;;;;;;;;10389789;28;20040;-46
2023/01/19 20:07:40;;;;;;;9.90;3.20;;;;;;;;;;10409704;28;20044;-47
2023/01/19 20:12:41;;;;;;;10.10;3.58;;;;;;;;;;10406007;28;20037;-54
2023/01/19 20:17:41;;;;;;;9.30;3.20;;;;;;;;;;10404983;28;20033;-46
2023/01/19 20:22:42;;;;;;;6.47;3.35;;;;;;;;;;10407878;28;20084;-47
2023/01/19 20:27:43;;;;;;;9.30;3.20;;;;;;;;;;10401854;28;20021;-46
2023/01/19 20:32:43;;;;;;;10.18;2.85;;;;;;;;;;10409946;28;20255;-46
2023/01/19 20:37:44;;;;;;;7.90;3.00;;;;;;;;;;10408730;28;20124;-46
2023/01/19 20:42:44;;;;;;;11.68;3.35;;;;;;;;;;10408018;28;20480;-46
2023/01/19 20:47:45;;;;;;;15.75;3.15;;;;;;;;;;10409386;28;20093;-46
2023/01/19 20:52:46;;;;;;;7.10;2.97;;;;;;;;;;10408180;28;20022;-46
2023/01/19 20:57:46;;;;;;;8.43;3.03;;;;;;;;;;10403977;28;20037;-46
2023/01/19 21:02:47;;;;;;;9.05;2.65;;;;;;;;;;10391407;28;20042;-53
2023/01/19 21:07:48;;;;;;;5.20;2.28;;;;;;;;;;10387934;28;21648;-47
2023/01/19 21:12:49;;;;;;;7.68;2.78;;;;;;;;;;10391939;28;20022;-55
2023/01/19 21:17:49;;;;;;;7.40;2.80;;;;;;;;;;10392847;28;20477;-54
2023/01/19 21:22:51;;;;;;;3.28;2.22;;;;;;;;;;10391530;28;20029;-46
2023/01/19 21:27:51;;;;;;;5.43;2.92;;;;;;;;;;10392882;28;20038;-50
2023/01/19 21:32:53;;;;;;;4.22;2.30;;;;;;;;;;10391283;28;20052;-54
2023/01/19 21:37:53;;;;;;;10.30;3.15;;;;;;;;;;10374888;28;20065;-58
2023/01/19 21:42:54;;;;;;;10.82;3.17;;;;;;;;;;10399640;28;20033;-46
2023/01/19 21:47:55;;;;;;;5.60;2.72;;;;;;;;;;10397193;28;20021;-46
2023/01/19 21:52:56;;;;;;;11.60;3.38;;;;;;;;;;10397539;28;20033;-49
2023/01/19 21:57:57;;;;;;;6.85;3.40;;;;;;;;;;10390634;28;20037;-49
2023/01/19 22:02:58;;;;;;;15.73;3.60;;;;;;;;;;10404649;28;20083;-47
2023/01/19 22:07:58;;;;;;;10.18;3.20;;;;;;;;;;10402414;28;20465;-46
2023/01/19 22:12:59;;;;;;;11.82;3.40;;;;;;;;;;10381076;28;20029;-51
2023/01/19 22:17:59;;;;;;;10.88;4.10;;;;;;;;;;10382760;28;20099;-46
2023/01/19 22:23:00;;;;;;;10.43;2.95;;;;;;;;;;10397355;28;20028;-47
2023/01/19 22:28:01;;;;;;;8.80;3.13;;;;;;;;;;10406188;28;20025;-48
2023/01/19 22:33:01;;;;;;;6.20;2.67;;;;;;;;;;10403428;28;20053;-46
2023/01/19 22:38:02;;;;;;;9.60;3.20;;;;;;;;;;10405150;28;20404;-46
2023/01/19 22:43:02;;;;;;;7.82;3.22;;;;;;;;;;10408516;28;20087;-47
2023/01/19 22:48:03;;;;;;;8.52;3.05;;;;;;;;;;10412204;28;20037;-47
2023/01/19 22:53:04;;;;;;;7.18;3.10;;;;;;;;;;10410766;28;20033;-48
2023/01/19 22:58:04;;;;;;;6.10;3.40;;;;;;;;;;10413320;28;20058;-52
2023/01/19 23:03:05;;;;;;;7.07;2.85;;;;;;;;;;10396949;28;20032;-46
2023/01/19 23:08:05;;;;;;;6.85;2.33;;;;;;;;;;10405068;28;20079;-47
2023/01/19 23:13:06;;;;;;;9.50;2.75;;;;;;;;;;10409072;28;20025;-49
2023/01/19 23:18:07;;;;;;;7.53;2.78;;;;;;;;;;10396511;28;20489;-57
2023/01/19 23:23:07;;;;;;;7.88;3.00;;;;;;;;;;10394635;28;20043;-47
2023/01/19 23:28:08;;;;;;;4.95;2.28;;;;;;;;;;10396081;28;20167;-54
2023/01/19 23:33:08;;;;;;;5.82;2.40;;;;;;;;;;10394393;28;20026;-54
2023/01/19 23:38:09;;;;;;;7.43;3.17;;;;;;;;;;10396447;28;20041;-48
2023/01/19 23:43:09;;;;;;;5.55;2.60;;;;;;;;;;10394083;28;20496;-50
2023/01/19 23:48:10;;;;;;;5.18;2.35;;;;;;;;;;10404841;28;20535;-48
2023/01/19 23:53:10;;;;;;;3.90;2.08;;;;;;;;;;10409866;28;20021;-47
2023/01/19 23:58:11;;;;;;;5.45;2.65;;;;;;;;;;10410697;28;20025;-47
